sensor_id;sensor_type;location;lat;lon;timestamp;temperature;humidity
17442;DHT22;8838;50.144;8.176;2023-04-03T00:01:28;2.90;99.90
17442;DHT22;8838;50.144;8.176;2023-04-03T00:03:55;2.90;99.90
17442;DHT22;8838;50.144;8.176;2023-04-03T00:06:22;2.90;99.90
17442;DHT22;8838;50.144;8.176;2023-04-03T00:08:51;2.90;99.90
17442;DHT22;8838;50.144;8.176;2023-04-03T00:11:20;2.90;99.90
17442;DHT22;8838;50.144;8.176;2023-04-03T00:13:47;3.00;99.90
17442;DHT22;8838;50.144;8.176;2023-04-03T00:16:14;3.00;99.90
17442;DHT22;8838;50.144;8.176;2023-04-03T00:18:41;3.10;99.90
17442;DHT22;8838;50.144;8.176;2023-04-03T00:21:10;3.10;99.90
17442;DHT22;8838;50.144;8.176;2023-04-03T00:23:39;3.20;99.90
17442;DHT22;8838;50.144;8.176;2023-04-03T00:26:06;3.00;99.90
17442;DHT22;8838;50.144;8.176;2023-04-03T00:28:34;2.90;99.90
17442;DHT22;8838;50.144;8.176;2023-04-03T00:31:01;2.90;99.90
17442;DHT22;8838;50.144;8.176;2023-04-03T00:33:28;3.00;99.90
17442;DHT22;8838;50.144;8.176;2023-04-03T00:35:55;3.10;99.90
17442;DHT22;8838;50.144;8.176;2023-04-03T00:38:21;3.00;99.90
17442;DHT22;8838;50.144;8.176;2023-04-03T00:40:49;3.00;99.90
17442;DHT22;8838;50.144;8.176;2023-04-03T00:43:19;3.00;99.90
17442;DHT22;8838;50.144;8.176;2023-04-03T00:45:48;3.00;99.90
17442;DHT22;8838;50.144;8.176;2023-04-03T00:48:18;2.90;99.90
17442;DHT22;8838;50.144;8.176;2023-04-03T00:50:46;3.00;99.90
17442;DHT22;8838;50.144;8.176;2023-04-03T00:53:18;3.00;99.90
17442;DHT22;8838;50.144;8.176;2023-04-03T00:55:47;3.10;99.90
17442;DHT22;8838;50.144;8.176;2023-04-03T00:58:15;2.90;99.90
17442;DHT22;8838;50.144;8.176;2023-04-03T01:00:50;2.80;99.90
17442;DHT22;8838;50.144;8.176;2023-04-03T01:03:21;2.70;99.90
17442;DHT22;8838;50.144;8.176;2023-04-03T01:05:48;2.90;99.90
17442;DHT22;8838;50.144;8.176;2023-04-03T01:08:16;3.00;99.90
17442;DHT22;8838;50.144;8.176;2023-04-03T01:10:43;3.00;99.90
17442;DHT22;8838;50.144;8.176;2023-04-03T01:13:25;2.90;99.90
17442;DHT22;8838;50.144;8.176;2023-04-03T01:15:54;3.00;99.90
17442;DHT22;8838;50.144;8.176;2023-04-03T01:18:23;2.90;99.90
17442;DHT22;8838;50.144;8.176;2023-04-03T01:24:09;3.00;99.90
17442;DHT22;8838;50.144;8.176;2023-04-03T01:26:38;3.00;99.90
17442;DHT22;8838;50.144;8.176;2023-04-03T01:29:05;3.00;99.90
17442;DHT22;8838;50.144;8.176;2023-04-03T01:31:46;3.10;99.90
17442;DHT22;8838;50.144;8.176;2023-04-03T01:34:13;3.20;99.90
17442;DHT22;8838;50.144;8.176;2023-04-03T01:36:40;3.10;99.90
17442;DHT22;8838;50.144;8.176;2023-04-03T01:39:07;3.20;99.90
17442;DHT22;8838;50.144;8.176;2023-04-03T01:41:34;3.20;99.90
17442;DHT22;8838;50.144;8.176;2023-04-03T01:44:01;3.10;99.90
17442;DHT22;8838;50.144;8.176;2023-04-03T01:46:29;3.20;99.90
17442;DHT22;8838;50.144;8.176;2023-04-03T01:48:57;3.20;99.90
17442;DHT22;8838;50.144;8.176;2023-04-03T01:51:24;3.30;99.90
17442;DHT22;8838;50.144;8.176;2023-04-03T01:53:51;3.30;99.90
17442;DHT22;8838;50.144;8.176;2023-04-03T01:56:18;3.20;99.90
17442;DHT22;8838;50.144;8.176;2023-04-03T01:58:45;3.20;99.90
17442;DHT22;8838;50.144;8.176;2023-04-03T02:01:12;3.10;99.90
17442;DHT22;8838;50.144;8.176;2023-04-03T02:03:39;3.10;99.90
17442;DHT22;8838;50.144;8.176;2023-04-03T02:06:08;3.10;99.90
17442;DHT22;8838;50.144;8.176;2023-04-03T02:08:34;3.10;99.90
17442;DHT22;8838;50.144;8.176;2023-04-03T02:11:01;3.20;99.90
17442;DHT22;8838;50.144;8.176;2023-04-03T02:13:28;3.20;99.90
17442;DHT22;8838;50.144;8.176;2023-04-03T02:15:55;3.20;99.90
17442;DHT22;8838;50.144;8.176;2023-04-03T02:18:22;3.20;99.90
17442;DHT22;8838;50.144;8.176;2023-04-03T02:20:49;3.30;99.90
17442;DHT22;8838;50.144;8.176;2023-04-03T02:23:17;3.30;99.90
17442;DHT22;8838;50.144;8.176;2023-04-03T02:25:44;3.30;99.90
17442;DHT22;8838;50.144;8.176;2023-04-03T02:28:11;3.30;99.90
17442;DHT22;8838;50.144;8.176;2023-04-03T02:30:38;3.30;99.90
17442;DHT22;8838;50.144;8.176;2023-04-03T02:33:04;3.30;99.90
17442;DHT22;8838;50.144;8.176;2023-04-03T02:35:31;3.40;99.90
17442;DHT22;8838;50.144;8.176;2023-04-03T02:37:58;3.40;99.90
17442;DHT22;8838;50.144;8.176;2023-04-03T02:40:26;3.40;99.90
17442;DHT22;8838;50.144;8.176;2023-04-03T02:42:53;3.50;99.90
17442;DHT22;8838;50.144;8.176;2023-04-03T02:45:20;3.50;99.90
17442;DHT22;8838;50.144;8.176;2023-04-03T02:47:47;3.50;99.90
17442;DHT22;8838;50.144;8.176;2023-04-03T02:50:14;3.50;99.90
17442;DHT22;8838;50.144;8.176;2023-04-03T02:52:41;3.50;99.90
17442;DHT22;8838;50.144;8.176;2023-04-03T02:55:08;3.50;99.90
17442;DHT22;8838;50.144;8.176;2023-04-03T02:57:36;3.50;99.90
17442;DHT22;8838;50.144;8.176;2023-04-03T03:00:04;3.50;99.90
17442;DHT22;8838;50.144;8.176;2023-04-03T03:02:31;3.40;99.90
17442;DHT22;8838;50.144;8.176;2023-04-03T03:04:58;3.40;99.90
17442;DHT22;8838;50.144;8.176;2023-04-03T03:07:25;3.40;99.90
17442;DHT22;8838;50.144;8.176;2023-04-03T03:09:52;3.50;99.90
17442;DHT22;8838;50.144;8.176;2023-04-03T03:12:19;3.40;99.90
17442;DHT22;8838;50.144;8.176;2023-04-03T03:14:48;3.50;99.90
17442;DHT22;8838;50.144;8.176;2023-04-03T03:17:15;3.50;99.90
17442;DHT22;8838;50.144;8.176;2023-04-03T03:19:43;3.40;99.90
17442;DHT22;8838;50.144;8.176;2023-04-03T03:22:11;3.50;99.90
17442;DHT22;8838;50.144;8.176;2023-04-03T03:24:38;3.40;99.90
17442;DHT22;8838;50.144;8.176;2023-04-03T03:27:04;3.50;99.90
17442;DHT22;8838;50.144;8.176;2023-04-03T03:29:31;3.40;99.90
17442;DHT22;8838;50.144;8.176;2023-04-03T03:31:59;3.40;99.90
17442;DHT22;8838;50.144;8.176;2023-04-03T03:34:26;3.40;99.90
17442;DHT22;8838;50.144;8.176;2023-04-03T03:36:53;3.30;99.90
17442;DHT22;8838;50.144;8.176;2023-04-03T03:39:20;3.30;99.90
17442;DHT22;8838;50.144;8.176;2023-04-03T03:41:47;3.30;99.90
17442;DHT22;8838;50.144;8.176;2023-04-03T03:44:15;3.20;99.90
17442;DHT22;8838;50.144;8.176;2023-04-03T03:46:42;3.30;99.90
17442;DHT22;8838;50.144;8.176;2023-04-03T03:49:10;3.30;99.90
17442;DHT22;8838;50.144;8.176;2023-04-03T03:51:37;3.30;99.90
17442;DHT22;8838;50.144;8.176;2023-04-03T03:54:05;3.30;99.90
17442;DHT22;8838;50.144;8.176;2023-04-03T03:56:32;3.30;99.90
17442;DHT22;8838;50.144;8.176;2023-04-03T03:58:58;3.30;99.90
17442;DHT22;8838;50.144;8.176;2023-04-03T04:01:26;3.30;99.90
17442;DHT22;8838;50.144;8.176;2023-04-03T04:03:52;3.30;99.90
17442;DHT22;8838;50.144;8.176;2023-04-03T04:06:21;3.20;99.90
17442;DHT22;8838;50.144;8.176;2023-04-03T04:08:48;3.10;99.90
17442;DHT22;8838;50.144;8.176;2023-04-03T04:11:15;3.00;99.90
17442;DHT22;8838;50.144;8.176;2023-04-03T04:13:42;3.00;99.90
17442;DHT22;8838;50.144;8.176;2023-04-03T04:16:09;2.90;99.90
17442;DHT22;8838;50.144;8.176;2023-04-03T04:18:36;2.90;99.90
17442;DHT22;8838;50.144;8.176;2023-04-03T04:21:03;2.80;99.90
17442;DHT22;8838;50.144;8.176;2023-04-03T04:23:31;2.80;99.90
17442;DHT22;8838;50.144;8.176;2023-04-03T04:25:58;2.60;99.90
17442;DHT22;8838;50.144;8.176;2023-04-03T04:28:25;2.60;99.90
17442;DHT22;8838;50.144;8.176;2023-04-03T04:30:52;2.60;99.90
17442;DHT22;8838;50.144;8.176;2023-04-03T04:33:19;2.50;99.90
17442;DHT22;8838;50.144;8.176;2023-04-03T04:35:47;2.50;99.90
17442;DHT22;8838;50.144;8.176;2023-04-03T04:38:15;2.50;99.90
17442;DHT22;8838;50.144;8.176;2023-04-03T04:40:43;2.50;99.90
17442;DHT22;8838;50.144;8.176;2023-04-03T04:43:10;2.40;99.90
17442;DHT22;8838;50.144;8.176;2023-04-03T04:45:39;2.40;99.90
17442;DHT22;8838;50.144;8.176;2023-04-03T04:48:06;2.40;99.90
17442;DHT22;8838;50.144;8.176;2023-04-03T04:50:33;2.40;99.90
17442;DHT22;8838;50.144;8.176;2023-04-03T04:53:00;2.40;99.90
17442;DHT22;8838;50.144;8.176;2023-04-03T04:55:27;2.30;99.90
17442;DHT22;8838;50.144;8.176;2023-04-03T04:57:55;2.30;99.90
17442;DHT22;8838;50.144;8.176;2023-04-03T05:00:22;2.30;99.90
17442;DHT22;8838;50.144;8.176;2023-04-03T05:02:49;2.20;99.90
17442;DHT22;8838;50.144;8.176;2023-04-03T05:05:16;2.20;99.90
17442;DHT22;8838;50.144;8.176;2023-04-03T05:07:43;2.10;99.90
17442;DHT22;8838;50.144;8.176;2023-04-03T05:10:10;2.10;99.90
17442;DHT22;8838;50.144;8.176;2023-04-03T05:12:37;2.10;99.90
17442;DHT22;8838;50.144;8.176;2023-04-03T05:15:06;2.10;99.90
17442;DHT22;8838;50.144;8.176;2023-04-03T05:17:33;2.00;99.90
17442;DHT22;8838;50.144;8.176;2023-04-03T05:20:00;1.90;99.90
17442;DHT22;8838;50.144;8.176;2023-04-03T05:22:28;1.80;99.90
17442;DHT22;8838;50.144;8.176;2023-04-03T05:24:56;1.80;99.90
17442;DHT22;8838;50.144;8.176;2023-04-03T05:27:23;1.80;99.90
17442;DHT22;8838;50.144;8.176;2023-04-03T05:29:52;1.80;99.90
17442;DHT22;8838;50.144;8.176;2023-04-03T05:32:20;1.90;99.90
17442;DHT22;8838;50.144;8.176;2023-04-03T05:34:47;2.00;99.90
17442;DHT22;8838;50.144;8.176;2023-04-03T05:37:14;2.00;99.90
17442;DHT22;8838;50.144;8.176;2023-04-03T05:39:41;2.00;99.90
17442;DHT22;8838;50.144;8.176;2023-04-03T05:42:08;2.10;99.90
17442;DHT22;8838;50.144;8.176;2023-04-03T05:44:36;2.20;99.90
17442;DHT22;8838;50.144;8.176;2023-04-03T05:47:04;2.30;99.90
17442;DHT22;8838;50.144;8.176;2023-04-03T05:49:32;2.40;99.90
17442;DHT22;8838;50.144;8.176;2023-04-03T05:51:59;2.40;99.90
17442;DHT22;8838;50.144;8.176;2023-04-03T05:54:27;2.40;99.90
17442;DHT22;8838;50.144;8.176;2023-04-03T05:56:55;2.30;99.90
17442;DHT22;8838;50.144;8.176;2023-04-03T05:59:22;2.30;99.90
17442;DHT22;8838;50.144;8.176;2023-04-03T06:01:49;2.20;99.90
17442;DHT22;8838;50.144;8.176;2023-04-03T06:04:16;2.20;99.90
17442;DHT22;8838;50.144;8.176;2023-04-03T06:06:49;2.10;99.90
17442;DHT22;8838;50.144;8.176;2023-04-03T06:09:17;2.20;99.90
17442;DHT22;8838;50.144;8.176;2023-04-03T06:11:44;2.20;99.90
17442;DHT22;8838;50.144;8.176;2023-04-03T06:14:12;2.20;99.90
17442;DHT22;8838;50.144;8.176;2023-04-03T06:16:39;2.20;99.90
17442;DHT22;8838;50.144;8.176;2023-04-03T06:19:06;2.30;99.90
17442;DHT22;8838;50.144;8.176;2023-04-03T06:21:33;2.30;99.90
17442;DHT22;8838;50.144;8.176;2023-04-03T06:24:02;2.20;99.90
17442;DHT22;8838;50.144;8.176;2023-04-03T06:26:29;2.30;99.90
17442;DHT22;8838;50.144;8.176;2023-04-03T06:28:56;2.30;99.90
17442;DHT22;8838;50.144;8.176;2023-04-03T06:31:23;2.30;99.90
17442;DHT22;8838;50.144;8.176;2023-04-03T06:33:50;2.20;99.90
17442;DHT22;8838;50.144;8.176;2023-04-03T06:36:18;2.30;99.90
17442;DHT22;8838;50.144;8.176;2023-04-03T06:38:46;2.40;99.90
17442;DHT22;8838;50.144;8.176;2023-04-03T06:41:15;2.40;99.90
17442;DHT22;8838;50.144;8.176;2023-04-03T06:43:43;2.50;99.90
17442;DHT22;8838;50.144;8.176;2023-04-03T06:46:13;2.60;99.90
17442;DHT22;8838;50.144;8.176;2023-04-03T06:48:41;2.90;99.90
17442;DHT22;8838;50.144;8.176;2023-04-03T06:51:19;3.20;99.90
17442;DHT22;8838;50.144;8.176;2023-04-03T06:53:46;3.50;99.90
17442;DHT22;8838;50.144;8.176;2023-04-03T06:56:15;3.80;99.90
17442;DHT22;8838;50.144;8.176;2023-04-03T06:58:42;4.00;99.90
17442;DHT22;8838;50.144;8.176;2023-04-03T07:01:10;4.00;99.90
17442;DHT22;8838;50.144;8.176;2023-04-03T07:03:37;3.90;99.90
17442;DHT22;8838;50.144;8.176;2023-04-03T07:06:05;3.80;99.90
17442;DHT22;8838;50.144;8.176;2023-04-03T07:08:33;4.10;99.90
17442;DHT22;8838;50.144;8.176;2023-04-03T07:11:00;4.50;99.90
17442;DHT22;8838;50.144;8.176;2023-04-03T07:13:28;4.70;99.90
17442;DHT22;8838;50.144;8.176;2023-04-03T07:15:55;4.60;99.90
17442;DHT22;8838;50.144;8.176;2023-04-03T07:18:23;4.70;99.90
17442;DHT22;8838;50.144;8.176;2023-04-03T07:20:50;5.10;99.90
17442;DHT22;8838;50.144;8.176;2023-04-03T07:23:18;5.50;99.90
17442;DHT22;8838;50.144;8.176;2023-04-03T07:25:46;5.40;99.90
17442;DHT22;8838;50.144;8.176;2023-04-03T07:28:13;5.50;99.90
17442;DHT22;8838;50.144;8.176;2023-04-03T07:30:46;5.80;99.90
17442;DHT22;8838;50.144;8.176;2023-04-03T07:33:15;5.80;99.90
17442;DHT22;8838;50.144;8.176;2023-04-03T07:35:43;6.00;99.90
17442;DHT22;8838;50.144;8.176;2023-04-03T07:38:11;6.10;99.90
17442;DHT22;8838;50.144;8.176;2023-04-03T07:40:38;6.50;99.90
17442;DHT22;8838;50.144;8.176;2023-04-03T07:43:06;6.20;99.90
17442;DHT22;8838;50.144;8.176;2023-04-03T07:45:35;6.70;99.90
17442;DHT22;8838;50.144;8.176;2023-04-03T07:48:04;7.00;99.90
17442;DHT22;8838;50.144;8.176;2023-04-03T07:50:31;6.90;99.90
17442;DHT22;8838;50.144;8.176;2023-04-03T07:52:58;7.50;99.90
17442;DHT22;8838;50.144;8.176;2023-04-03T07:55:25;8.00;99.90
17442;DHT22;8838;50.144;8.176;2023-04-03T07:57:52;8.50;99.90
17442;DHT22;8838;50.144;8.176;2023-04-03T08:00:19;9.00;99.90
17442;DHT22;8838;50.144;8.176;2023-04-03T08:02:46;9.10;99.90
17442;DHT22;8838;50.144;8.176;2023-04-03T08:05:18;9.40;99.90
17442;DHT22;8838;50.144;8.176;2023-04-03T08:07:45;9.60;99.90
17442;DHT22;8838;50.144;8.176;2023-04-03T08:10:13;10.20;99.90
17442;DHT22;8838;50.144;8.176;2023-04-03T08:12:40;10.40;99.90
17442;DHT22;8838;50.144;8.176;2023-04-03T08:15:08;10.20;99.90
17442;DHT22;8838;50.144;8.176;2023-04-03T08:17:36;10.10;99.90
17442;DHT22;8838;50.144;8.176;2023-04-03T08:20:04;9.90;99.90
17442;DHT22;8838;50.144;8.176;2023-04-03T08:22:33;10.30;99.90
17442;DHT22;8838;50.144;8.176;2023-04-03T08:25:00;10.10;99.90
17442;DHT22;8838;50.144;8.176;2023-04-03T08:27:27;9.60;99.90
17442;DHT22;8838;50.144;8.176;2023-04-03T08:29:54;9.90;99.90
17442;DHT22;8838;50.144;8.176;2023-04-03T08:32:22;10.60;99.90
17442;DHT22;8838;50.144;8.176;2023-04-03T08:34:49;10.20;99.90
17442;DHT22;8838;50.144;8.176;2023-04-03T08:37:16;10.10;99.90
17442;DHT22;8838;50.144;8.176;2023-04-03T08:39:44;10.20;99.90
17442;DHT22;8838;50.144;8.176;2023-04-03T08:42:16;10.00;99.90
17442;DHT22;8838;50.144;8.176;2023-04-03T08:44:49;9.80;99.90
17442;DHT22;8838;50.144;8.176;2023-04-03T08:47:23;10.10;99.90
17442;DHT22;8838;50.144;8.176;2023-04-03T08:49:53;9.90;99.90
17442;DHT22;8838;50.144;8.176;2023-04-03T08:52:30;10.10;99.90
17442;DHT22;8838;50.144;8.176;2023-04-03T08:55:02;9.70;99.90
17442;DHT22;8838;50.144;8.176;2023-04-03T08:57:32;9.80;99.90
17442;DHT22;8838;50.144;8.176;2023-04-03T09:00:03;9.50;99.90
17442;DHT22;8838;50.144;8.176;2023-04-03T09:02:35;9.90;99.90
17442;DHT22;8838;50.144;8.176;2023-04-03T09:05:11;10.60;99.90
17442;DHT22;8838;50.144;8.176;2023-04-03T09:07:43;10.20;99.90
17442;DHT22;8838;50.144;8.176;2023-04-03T09:10:13;10.20;99.90
17442;DHT22;8838;50.144;8.176;2023-04-03T09:12:44;10.80;99.90
17442;DHT22;8838;50.144;8.176;2023-04-03T09:15:18;11.00;99.90
17442;DHT22;8838;50.144;8.176;2023-04-03T09:17:59;10.10;99.90
17442;DHT22;8838;50.144;8.176;2023-04-03T09:20:35;9.50;99.90
17442;DHT22;8838;50.144;8.176;2023-04-03T09:23:13;10.60;99.90
17442;DHT22;8838;50.144;8.176;2023-04-03T09:25:43;11.00;99.90
17442;DHT22;8838;50.144;8.176;2023-04-03T09:28:11;11.60;99.90
17442;DHT22;8838;50.144;8.176;2023-04-03T09:30:38;12.00;99.90
17442;DHT22;8838;50.144;8.176;2023-04-03T09:33:05;11.70;99.90
17442;DHT22;8838;50.144;8.176;2023-04-03T09:35:34;11.90;99.90
17442;DHT22;8838;50.144;8.176;2023-04-03T09:38:15;11.90;99.90
17442;DHT22;8838;50.144;8.176;2023-04-03T09:40:45;12.20;99.90
17442;DHT22;8838;50.144;8.176;2023-04-03T09:43:28;11.20;99.90
17442;DHT22;8838;50.144;8.176;2023-04-03T09:45:56;9.90;99.90
17442;DHT22;8838;50.144;8.176;2023-04-03T09:48:50;8.70;99.90
17442;DHT22;8838;50.144;8.176;2023-04-03T09:51:17;8.50;99.90
17442;DHT22;8838;50.144;8.176;2023-04-03T09:53:45;9.20;99.90
17442;DHT22;8838;50.144;8.176;2023-04-03T09:56:24;9.60;99.90
17442;DHT22;8838;50.144;8.176;2023-04-03T09:59:07;9.20;99.90
17442;DHT22;8838;50.144;8.176;2023-04-03T10:01:36;9.00;99.90
17442;DHT22;8838;50.144;8.176;2023-04-03T10:04:07;9.30;99.90
17442;DHT22;8838;50.144;8.176;2023-04-03T10:06:36;9.20;99.90
17442;DHT22;8838;50.144;8.176;2023-04-03T10:09:06;8.60;99.90
17442;DHT22;8838;50.144;8.176;2023-04-03T10:11:35;8.50;99.90
17442;DHT22;8838;50.144;8.176;2023-04-03T10:14:03;8.80;99.90
17442;DHT22;8838;50.144;8.176;2023-04-03T10:16:35;8.50;99.90
17442;DHT22;8838;50.144;8.176;2023-04-03T10:19:31;9.00;99.90
17442;DHT22;8838;50.144;8.176;2023-04-03T10:22:03;8.80;99.90
17442;DHT22;8838;50.144;8.176;2023-04-03T10:24:39;7.40;99.90
17442;DHT22;8838;50.144;8.176;2023-04-03T10:27:12;6.70;99.90
17442;DHT22;8838;50.144;8.176;2023-04-03T10:29:45;6.60;99.90
17442;DHT22;8838;50.144;8.176;2023-04-03T10:32:38;6.90;99.90
17442;DHT22;8838;50.144;8.176;2023-04-03T10:35:12;8.60;99.90
17442;DHT22;8838;50.144;8.176;2023-04-03T10:37:53;7.90;99.90
17442;DHT22;8838;50.144;8.176;2023-04-03T10:40:30;7.80;99.90
17442;DHT22;8838;50.144;8.176;2023-04-03T10:43:08;7.70;99.90
17442;DHT22;8838;50.144;8.176;2023-04-03T10:45:57;8.10;99.90
17442;DHT22;8838;50.144;8.176;2023-04-03T10:48:37;8.00;99.90
17442;DHT22;8838;50.144;8.176;2023-04-03T10:51:16;7.50;99.90
17442;DHT22;8838;50.144;8.176;2023-04-03T10:53:51;7.50;99.90
17442;DHT22;8838;50.144;8.176;2023-04-03T10:56:28;7.30;99.90
17442;DHT22;8838;50.144;8.176;2023-04-03T10:59:11;6.90;99.90
17442;DHT22;8838;50.144;8.176;2023-04-03T11:01:41;7.40;99.90
17442;DHT22;8838;50.144;8.176;2023-04-03T11:04:11;8.70;99.90
17442;DHT22;8838;50.144;8.176;2023-04-03T11:06:43;9.10;99.90
17442;DHT22;8838;50.144;8.176;2023-04-03T11:09:21;10.10;99.90
17442;DHT22;8838;50.144;8.176;2023-04-03T11:11:53;10.10;99.90
17442;DHT22;8838;50.144;8.176;2023-04-03T11:14:26;9.50;99.90
17442;DHT22;8838;50.144;8.176;2023-04-03T11:17:02;8.90;99.90
17442;DHT22;8838;50.144;8.176;2023-04-03T11:19:35;9.60;99.90
17442;DHT22;8838;50.144;8.176;2023-04-03T11:22:13;9.80;99.90
17442;DHT22;8838;50.144;8.176;2023-04-03T11:24:50;9.70;99.90
17442;DHT22;8838;50.144;8.176;2023-04-03T11:27:21;9.70;99.90
17442;DHT22;8838;50.144;8.176;2023-04-03T11:29:53;9.10;99.90
17442;DHT22;8838;50.144;8.176;2023-04-03T11:35:27;9.10;99.90
17442;DHT22;8838;50.144;8.176;2023-04-03T11:37:54;9.10;99.90
17442;DHT22;8838;50.144;8.176;2023-04-03T11:40:25;9.00;99.90
17442;DHT22;8838;50.144;8.176;2023-04-03T11:42:54;8.80;99.90
17442;DHT22;8838;50.144;8.176;2023-04-03T11:45:31;8.20;99.90
17442;DHT22;8838;50.144;8.176;2023-04-03T11:48:00;8.10;99.90
17442;DHT22;8838;50.144;8.176;2023-04-03T11:50:39;7.90;99.90
17442;DHT22;8838;50.144;8.176;2023-04-03T11:53:30;8.20;99.90
17442;DHT22;8838;50.144;8.176;2023-04-03T11:56:00;8.80;99.90
17442;DHT22;8838;50.144;8.176;2023-04-03T11:58:29;9.30;99.90
17442;DHT22;8838;50.144;8.176;2023-04-03T12:01:09;8.80;99.90
17442;DHT22;8838;50.144;8.176;2023-04-03T12:07:01;8.80;99.90
17442;DHT22;8838;50.144;8.176;2023-04-03T12:12:30;9.30;99.90
17442;DHT22;8838;50.144;8.176;2023-04-03T12:15:36;8.50;99.90
17442;DHT22;8838;50.144;8.176;2023-04-03T12:21:09;8.10;99.90
17442;DHT22;8838;50.144;8.176;2023-04-03T12:23:59;8.70;99.90
17442;DHT22;8838;50.144;8.176;2023-04-03T12:26:35;9.20;99.90
17442;DHT22;8838;50.144;8.176;2023-04-03T12:29:11;9.60;99.90
17442;DHT22;8838;50.144;8.176;2023-04-03T12:31:49;10.00;99.90
17442;DHT22;8838;50.144;8.176;2023-04-03T12:34:35;10.00;99.90
17442;DHT22;8838;50.144;8.176;2023-04-03T12:37:19;9.70;99.90
17442;DHT22;8838;50.144;8.176;2023-04-03T12:40:05;9.80;99.90
17442;DHT22;8838;50.144;8.176;2023-04-03T12:42:59;9.40;99.90
17442;DHT22;8838;50.144;8.176;2023-04-03T12:45:39;9.10;99.90
17442;DHT22;8838;50.144;8.176;2023-04-03T12:48:14;8.90;99.90
17442;DHT22;8838;50.144;8.176;2023-04-03T12:50:41;9.10;99.90
17442;DHT22;8838;50.144;8.176;2023-04-03T12:53:16;9.40;99.90
17442;DHT22;8838;50.144;8.176;2023-04-03T12:55:43;9.70;99.90
17442;DHT22;8838;50.144;8.176;2023-04-03T12:58:15;9.60;99.90
17442;DHT22;8838;50.144;8.176;2023-04-03T13:00:43;9.30;99.90
17442;DHT22;8838;50.144;8.176;2023-04-03T13:03:22;9.10;99.90
17442;DHT22;8838;50.144;8.176;2023-04-03T13:05:52;9.20;99.90
17442;DHT22;8838;50.144;8.176;2023-04-03T13:08:21;9.40;99.90
17442;DHT22;8838;50.144;8.176;2023-04-03T13:10:55;9.40;99.90
17442;DHT22;8838;50.144;8.176;2023-04-03T13:13:23;9.10;99.90
17442;DHT22;8838;50.144;8.176;2023-04-03T13:15:52;9.20;99.90
17442;DHT22;8838;50.144;8.176;2023-04-03T13:18:29;9.40;99.90
17442;DHT22;8838;50.144;8.176;2023-04-03T13:21:00;9.10;99.90
17442;DHT22;8838;50.144;8.176;2023-04-03T13:23:30;9.30;99.90
17442;DHT22;8838;50.144;8.176;2023-04-03T13:25:58;9.70;99.90
17442;DHT22;8838;50.144;8.176;2023-04-03T13:28:30;10.00;99.90
17442;DHT22;8838;50.144;8.176;2023-04-03T13:31:03;10.30;99.90
17442;DHT22;8838;50.144;8.176;2023-04-03T13:33:34;10.40;99.90
17442;DHT22;8838;50.144;8.176;2023-04-03T13:36:05;10.10;99.90
17442;DHT22;8838;50.144;8.176;2023-04-03T13:38:34;10.00;99.90
17442;DHT22;8838;50.144;8.176;2023-04-03T13:41:05;10.30;99.90
17442;DHT22;8838;50.144;8.176;2023-04-03T13:43:35;9.90;99.90
17442;DHT22;8838;50.144;8.176;2023-04-03T13:46:19;9.70;99.90
17442;DHT22;8838;50.144;8.176;2023-04-03T13:48:49;9.40;99.90
17442;DHT22;8838;50.144;8.176;2023-04-03T13:51:20;9.40;99.90
17442;DHT22;8838;50.144;8.176;2023-04-03T13:53:52;9.20;99.90
17442;DHT22;8838;50.144;8.176;2023-04-03T13:56:25;9.30;99.90
17442;DHT22;8838;50.144;8.176;2023-04-03T13:59:00;9.50;99.90
17442;DHT22;8838;50.144;8.176;2023-04-03T14:01:36;9.70;99.90
17442;DHT22;8838;50.144;8.176;2023-04-03T14:04:12;9.50;99.90
17442;DHT22;8838;50.144;8.176;2023-04-03T14:06:39;9.90;99.90
17442;DHT22;8838;50.144;8.176;2023-04-03T14:09:07;10.30;99.90
17442;DHT22;8838;50.144;8.176;2023-04-03T14:11:35;10.60;99.90
17442;DHT22;8838;50.144;8.176;2023-04-03T14:14:09;10.20;99.90
17442;DHT22;8838;50.144;8.176;2023-04-03T14:16:40;10.20;99.90
17442;DHT22;8838;50.144;8.176;2023-04-03T14:19:09;10.00;99.90
17442;DHT22;8838;50.144;8.176;2023-04-03T14:21:41;10.30;99.90
17442;DHT22;8838;50.144;8.176;2023-04-03T14:24:09;10.40;99.90
17442;DHT22;8838;50.144;8.176;2023-04-03T14:26:37;9.80;99.90
17442;DHT22;8838;50.144;8.176;2023-04-03T14:29:04;10.00;99.90
17442;DHT22;8838;50.144;8.176;2023-04-03T14:31:31;10.00;99.90
17442;DHT22;8838;50.144;8.176;2023-04-03T14:33:58;10.10;99.90
17442;DHT22;8838;50.144;8.176;2023-04-03T14:36:28;10.10;99.90
17442;DHT22;8838;50.144;8.176;2023-04-03T14:38:55;10.10;99.90
17442;DHT22;8838;50.144;8.176;2023-04-03T14:41:25;10.40;99.90
17442;DHT22;8838;50.144;8.176;2023-04-03T14:43:53;10.00;99.90
17442;DHT22;8838;50.144;8.176;2023-04-03T14:46:24;10.10;99.90
17442;DHT22;8838;50.144;8.176;2023-04-03T14:48:51;10.30;99.90
17442;DHT22;8838;50.144;8.176;2023-04-03T14:51:18;10.10;99.90
17442;DHT22;8838;50.144;8.176;2023-04-03T14:53:45;10.20;99.90
17442;DHT22;8838;50.144;8.176;2023-04-03T14:56:22;9.90;99.90
17442;DHT22;8838;50.144;8.176;2023-04-03T14:58:55;9.70;99.90
17442;DHT22;8838;50.144;8.176;2023-04-03T15:01:22;9.40;99.90
17442;DHT22;8838;50.144;8.176;2023-04-03T15:03:49;9.70;99.90
17442;DHT22;8838;50.144;8.176;2023-04-03T15:06:16;10.00;99.90
17442;DHT22;8838;50.144;8.176;2023-04-03T15:08:45;10.00;99.90
17442;DHT22;8838;50.144;8.176;2023-04-03T15:11:12;9.90;99.90
17442;DHT22;8838;50.144;8.176;2023-04-03T15:13:40;9.60;99.90
17442;DHT22;8838;50.144;8.176;2023-04-03T15:16:16;9.90;99.90
17442;DHT22;8838;50.144;8.176;2023-04-03T15:18:44;10.00;99.90
17442;DHT22;8838;50.144;8.176;2023-04-03T15:21:11;10.30;99.90
17442;DHT22;8838;50.144;8.176;2023-04-03T15:23:38;10.00;99.90
17442;DHT22;8838;50.144;8.176;2023-04-03T15:26:05;10.00;99.90
17442;DHT22;8838;50.144;8.176;2023-04-03T15:28:34;9.80;99.90
17442;DHT22;8838;50.144;8.176;2023-04-03T15:31:02;9.60;99.90
17442;DHT22;8838;50.144;8.176;2023-04-03T15:33:31;9.90;99.90
17442;DHT22;8838;50.144;8.176;2023-04-03T15:35:58;10.00;99.90
17442;DHT22;8838;50.144;8.176;2023-04-03T15:38:25;10.20;99.90
17442;DHT22;8838;50.144;8.176;2023-04-03T15:40:53;9.90;99.90
17442;DHT22;8838;50.144;8.176;2023-04-03T15:43:21;9.80;99.90
17442;DHT22;8838;50.144;8.176;2023-04-03T15:45:49;9.90;99.90
17442;DHT22;8838;50.144;8.176;2023-04-03T15:48:17;9.90;99.90
17442;DHT22;8838;50.144;8.176;2023-04-03T15:50:45;10.00;99.90
17442;DHT22;8838;50.144;8.176;2023-04-03T15:53:12;10.00;99.90
17442;DHT22;8838;50.144;8.176;2023-04-03T15:55:39;9.70;99.90
17442;DHT22;8838;50.144;8.176;2023-04-03T15:58:06;9.60;99.90
17442;DHT22;8838;50.144;8.176;2023-04-03T16:00:33;9.60;99.90
17442;DHT22;8838;50.144;8.176;2023-04-03T16:03:05;9.90;99.90
17442;DHT22;8838;50.144;8.176;2023-04-03T16:05:32;9.70;99.90
17442;DHT22;8838;50.144;8.176;2023-04-03T16:08:05;9.60;99.90
17442;DHT22;8838;50.144;8.176;2023-04-03T16:10:34;9.70;99.90
17442;DHT22;8838;50.144;8.176;2023-04-03T16:13:01;9.60;99.90
17442;DHT22;8838;50.144;8.176;2023-04-03T16:15:29;9.30;99.90
17442;DHT22;8838;50.144;8.176;2023-04-03T16:17:58;9.40;99.90
17442;DHT22;8838;50.144;8.176;2023-04-03T16:23:40;9.10;99.90
17442;DHT22;8838;50.144;8.176;2023-04-03T16:26:07;9.10;99.90
17442;DHT22;8838;50.144;8.176;2023-04-03T16:28:35;9.30;99.90
17442;DHT22;8838;50.144;8.176;2023-04-03T16:31:03;9.40;99.90
17442;DHT22;8838;50.144;8.176;2023-04-03T16:33:32;9.40;99.90
17442;DHT22;8838;50.144;8.176;2023-04-03T16:35:59;9.50;99.90